International Virtual Aviation Organisation

Russian Federation Division

 

Карточка аэропорта USSS

Внимание!
Информация на этой странице в стадии наполнения.
Если вы не увидели какой-то информации, или заметили неточность - пожалуйста сообщите нам!
Спасибо!
Команда RU-STAFF
Название аэропортаКольцово
Название аэропорта (англ.)Koltsovo
Превышение766 ft. (233.5 m.)
Координаты56°44.586', 60°48.186'
Высота перехода900m
Эшелон переходаQFE>=739mm:FL050; QFE 712mm-738mm:FL060; QFE<=712mm:FL70
Коды ответчика5520-5557
Зона ОрВДЕкатеринбург РПИ (USSS)
Данные METARUSSS 220630Z 14004MPS CAVOK M02/M04 Q1016 R08L/290040 NOSIG RMK QFE742/0990
Проноз погоды (TAF)USSS 220449Z 2206/2306 14005MPS 9999 SCT020
NOTAMshow/hide NOTAM
AWOS   TABLE

Информация о ВПП

ВПП Длина ВПП (м.) Покрытие Курс ВПП Частота ILS
08L3004Асфальтобетон76111.7
26R3004Асфальтобетон256110.5
08R3026Бетон80109.9
26L3026Бетон260109.5

Диспетчерские позиции

Позывной Наименование органа УВД Частота
USSS_APPКольцово-Подход125.9
USSS_R_APPКольцово-Круг118.7
USSS_TWRКольцово-Старт120.0
USSS_GNDКольцово-Руление119.0
USSSFM1Машина сопровождения119.000



Спутниковое изображение